createdAt,value
2022-08-17T00:00:44.085Z,25.54
2022-08-17T00:03:10.220Z,25.53
2022-08-17T00:05:42.155Z,25.52
2022-08-17T00:08:10.640Z,25.46
2022-08-17T00:10:40.513Z,25.46
2022-08-17T00:13:12.070Z,25.46
2022-08-17T00:15:40.711Z,25.46
2022-08-17T00:19:06.139Z,25.52
2022-08-17T00:21:00.529Z,25.46
2022-08-17T00:23:30.083Z,25.43
2022-08-17T00:25:58.270Z,25.47
2022-08-17T00:28:27.984Z,25.52
2022-08-17T00:31:01.544Z,25.52
2022-08-17T00:33:32.869Z,25.56
2022-08-17T00:36:02.650Z,25.61
2022-08-17T00:38:31.359Z,25.63
2022-08-17T00:41:10.046Z,25.63
2022-08-17T00:43:40.985Z,25.60
2022-08-17T00:46:19.176Z,25.68
2022-08-17T00:48:50.441Z,25.62
2022-08-17T00:51:26.988Z,25.65
2022-08-17T00:53:59.644Z,25.67
2022-08-17T00:56:32.660Z,25.65
2022-08-17T00:59:02.380Z,25.49
2022-08-17T01:01:31.464Z,25.50
2022-08-17T01:04:02.830Z,25.44
2022-08-17T01:06:31.385Z,25.40
2022-08-17T01:09:02.210Z,25.44
2022-08-17T01:11:32.425Z,25.33
2022-08-17T01:14:00.902Z,25.23
2022-08-17T01:16:31.240Z,25.33
2022-08-17T01:19:03.357Z,25.37
2022-08-17T01:21:39.878Z,25.24
2022-08-17T01:24:09.840Z,25.25
2022-08-17T01:26:43.896Z,25.16
2022-08-17T01:29:12.846Z,25.03
2022-08-17T01:31:44.507Z,24.94
2022-08-17T01:34:15.452Z,24.88
2022-08-17T01:36:46.059Z,24.85
2022-08-17T01:39:24.839Z,24.89
2022-08-17T01:41:56.663Z,24.80
2022-08-17T01:44:28.042Z,24.83
2022-08-17T01:46:56.193Z,24.93
2022-08-17T01:49:24.435Z,25.00
2022-08-17T01:51:52.960Z,25.07
2022-08-17T01:54:23.414Z,25.09
2022-08-17T01:56:53.436Z,25.05
2022-08-17T01:59:22.838Z,25.02
2022-08-17T02:01:51.499Z,25.02
2022-08-17T02:04:19.950Z,24.99
2022-08-17T02:06:53.598Z,24.87
2022-08-17T02:09:29.499Z,24.84
2022-08-17T02:11:59.562Z,24.87
2022-08-17T02:14:28.325Z,24.90
2022-08-17T02:16:56.963Z,24.85
2022-08-17T02:19:25.349Z,24.75
2022-08-17T02:21:56.458Z,24.85
2022-08-17T02:25:00.319Z,24.90
2022-08-17T02:27:23.722Z,25.01
2022-08-17T02:29:51.960Z,25.04
2022-08-17T02:32:27.333Z,25.06
2022-08-17T02:34:57.199Z,25.10
2022-08-17T02:37:25.692Z,25.10
2022-08-17T02:39:57.166Z,25.03
2022-08-17T02:42:29.255Z,24.98
2022-08-17T02:44:57.376Z,24.97
2022-08-17T02:47:25.782Z,24.99
2022-08-17T02:49:56.214Z,25.01
2022-08-17T02:52:43.779Z,25.04
2022-08-17T02:55:17.654Z,25.00
2022-08-17T02:57:46.489Z,25.04
2022-08-17T03:00:18.824Z,24.93
2022-08-17T03:02:47.385Z,25.00
2022-08-17T03:05:18.314Z,24.93
2022-08-17T03:07:46.571Z,24.89
2022-08-17T03:10:17.065Z,24.85
2022-08-17T03:12:46.191Z,24.81
2022-08-17T03:15:16.870Z,24.82
2022-08-17T03:17:45.525Z,24.79
2022-08-17T03:20:14.740Z,24.78
2022-08-17T03:22:48.069Z,24.85
2022-08-17T03:25:25.853Z,24.83
2022-08-17T03:27:55.415Z,24.86
2022-08-17T03:30:25.275Z,24.87
2022-08-17T03:32:56.011Z,24.97
2022-08-17T03:35:27.877Z,25.05
2022-08-17T03:37:57.030Z,25.15
2022-08-17T03:40:55.692Z,25.44
2022-08-17T03:43:20.693Z,25.84
2022-08-17T03:46:24.877Z,26.00
2022-08-17T03:49:12.602Z,25.88
2022-08-17T03:51:58.280Z,25.85
2022-08-17T03:54:43.820Z,26.20
2022-08-17T03:57:13.977Z,26.32
2022-08-17T03:59:42.180Z,26.26
2022-08-17T04:02:15.682Z,26.07
2022-08-17T04:04:43.862Z,25.99
2022-08-17T04:07:12.159Z,26.04
2022-08-17T04:09:40.868Z,26.12
2022-08-17T04:12:09.207Z,26.30
2022-08-17T04:14:50.823Z,26.58
2022-08-17T04:17:23.240Z,26.94
2022-08-17T04:19:51.446Z,26.86
2022-08-17T04:22:31.159Z,26.74
2022-08-17T04:25:06.062Z,26.57
2022-08-17T04:27:34.317Z,26.48
2022-08-17T04:30:03.904Z,26.32
2022-08-17T04:33:03.393Z,26.11
2022-08-17T04:35:22.671Z,26.06
2022-08-17T04:37:51.130Z,26.06
2022-08-17T04:40:40.562Z,26.00
2022-08-17T04:43:11.399Z,25.84
2022-08-17T04:45:55.458Z,25.87
2022-08-17T04:48:27.972Z,25.99
2022-08-17T04:51:07.243Z,26.12
2022-08-17T04:53:35.443Z,26.18
2022-08-17T04:56:04.204Z,26.22
2022-08-17T04:58:32.711Z,26.37
2022-08-17T05:01:02.613Z,26.35
2022-08-17T05:03:31.121Z,26.76
2022-08-17T05:05:59.325Z,26.79
2022-08-17T05:08:27.730Z,27.11
2022-08-17T05:10:55.984Z,27.34
2022-08-17T05:13:26.087Z,27.64
2022-08-17T05:15:56.176Z,28.60
2022-08-17T05:18:26.561Z,29.03
2022-08-17T05:20:57.644Z,28.97
2022-08-17T05:23:29.235Z,29.75
2022-08-17T05:26:11.650Z,31.32
2022-08-17T05:28:51.358Z,31.73
2022-08-17T05:31:20.588Z,32.02
2022-08-17T05:33:50.168Z,31.74
2022-08-17T05:36:42.397Z,31.13
2022-08-17T05:39:06.823Z,31.66
2022-08-17T05:41:34.958Z,32.81
2022-08-17T05:44:05.498Z,32.96
2022-08-17T05:46:37.552Z,32.96
2022-08-17T05:49:09.155Z,32.96
2022-08-17T05:51:55.762Z,32.36
2022-08-17T05:54:36.605Z,32.72
2022-08-17T05:57:34.108Z,33.35
2022-08-17T06:00:10.025Z,31.97
2022-08-17T06:02:50.666Z,31.10
2022-08-17T06:05:43.007Z,30.69
2022-08-17T06:08:18.174Z,30.44
2022-08-17T06:10:53.721Z,30.40
2022-08-17T06:13:32.800Z,30.21
2022-08-17T06:16:28.268Z,29.25
2022-08-17T06:19:00.993Z,29.69
2022-08-17T06:21:37.351Z,29.79
2022-08-17T06:24:19.730Z,29.60
2022-08-17T06:26:48.510Z,30.27
2022-08-17T06:29:27.131Z,31.16
2022-08-17T06:31:55.402Z,30.72
2022-08-17T06:34:23.794Z,30.88
2022-08-17T06:37:07.202Z,30.43
2022-08-17T06:39:45.208Z,31.17
2022-08-17T06:42:54.959Z,31.52
2022-08-17T06:45:18.777Z,32.76
2022-08-17T06:48:08.008Z,32.97
2022-08-17T06:50:38.570Z,32.41
2022-08-17T06:53:19.140Z,32.29
2022-08-17T06:55:54.072Z,31.77
2022-08-17T06:58:29.563Z,32.83
2022-08-17T07:01:01.761Z,34.11
2022-08-17T07:03:38.122Z,33.77
2022-08-17T07:06:12.398Z,34.18
2022-08-17T07:08:52.776Z,33.28
2022-08-17T07:11:24.894Z,33.51
2022-08-17T07:14:02.404Z,33.61
2022-08-17T07:16:37.687Z,32.87
2022-08-17T07:19:07.720Z,32.71
2022-08-17T07:22:01.724Z,33.35
2022-08-17T07:24:37.449Z,32.85
2022-08-17T07:27:15.175Z,32.17
2022-08-17T07:29:48.278Z,31.80
2022-08-17T07:32:19.577Z,31.50
2022-08-17T07:35:15.463Z,31.46
2022-08-17T07:37:46.477Z,31.41
2022-08-17T07:40:28.456Z,31.18
2022-08-17T07:43:23.424Z,30.99
2022-08-17T07:46:35.613Z,31.25
2022-08-17T07:49:23.125Z,30.82
2022-08-17T07:52:24.100Z,30.72
2022-08-17T07:54:49.536Z,30.57
2022-08-17T07:57:43.230Z,30.54
2022-08-17T08:00:23.864Z,30.65
2022-08-17T08:03:14.850Z,30.74
2022-08-17T08:05:55.296Z,30.67
2022-08-17T08:08:29.263Z,30.60
2022-08-17T08:11:05.395Z,30.77
2022-08-17T08:13:35.855Z,30.70
2022-08-17T08:16:24.669Z,31.06
2022-08-17T08:18:57.388Z,31.17
2022-08-17T08:21:46.505Z,31.25
2022-08-17T08:24:32.450Z,31.45
2022-08-17T08:27:09.473Z,31.54
2022-08-17T08:29:49.917Z,31.44
2022-08-17T08:32:23.577Z,31.26
2022-08-17T08:35:02.832Z,31.40
2022-08-17T08:37:43.490Z,31.37
2022-08-17T08:40:30.134Z,31.67
2022-08-17T08:43:09.202Z,31.85
2022-08-17T08:45:49.691Z,32.25
2022-08-17T08:48:53.658Z,32.44
2022-08-17T08:51:31.589Z,32.51
2022-08-17T08:54:05.199Z,32.48
2022-08-17T08:56:53.764Z,31.93
2022-08-17T08:59:34.118Z,31.80
2022-08-17T09:02:23.922Z,32.15
2022-08-17T09:05:14.201Z,32.32
2022-08-17T09:07:56.318Z,32.53
2022-08-17T09:10:30.611Z,32.26
2022-08-17T09:13:10.127Z,32.40
2022-08-17T09:15:44.295Z,32.24
2022-08-17T09:19:02.795Z,32.21
2022-08-17T09:21:18.188Z,32.22
2022-08-17T09:23:59.846Z,32.50
2022-08-17T09:26:36.194Z,32.67
2022-08-17T09:29:10.115Z,32.80
2022-08-17T09:31:48.761Z,33.07
2022-08-17T09:34:29.600Z,32.97
2022-08-17T09:37:08.831Z,32.82
2022-08-17T09:39:43.430Z,32.98
2022-08-17T09:42:19.244Z,32.67
2022-08-17T09:44:55.821Z,33.10
2022-08-17T09:47:30.691Z,33.25
2022-08-17T09:50:05.131Z,32.61
2022-08-17T09:52:33.631Z,32.57
2022-08-17T09:55:02.260Z,32.62
2022-08-17T09:57:46.997Z,32.53
2022-08-17T10:00:25.207Z,32.15
2022-08-17T10:03:34.515Z,31.17
2022-08-17T10:06:13.388Z,30.64
2022-08-17T10:08:52.632Z,30.11
2022-08-17T10:11:50.680Z,29.45
2022-08-17T10:14:44.011Z,29.32
2022-08-17T10:17:21.250Z,29.44
2022-08-17T10:19:59.434Z,29.59
2022-08-17T10:22:54.832Z,29.43
2022-08-17T10:25:55.200Z,29.57
2022-08-17T10:28:30.249Z,29.79
2022-08-17T10:31:33.655Z,30.28
2022-08-17T10:34:12.041Z,30.64
2022-08-17T10:36:50.746Z,30.82
2022-08-17T10:39:30.956Z,30.58
2022-08-17T10:42:05.529Z,31.04
2022-08-17T10:44:45.784Z,31.05
2022-08-17T10:47:16.532Z,30.95
2022-08-17T10:49:48.045Z,30.86
2022-08-17T10:52:50.241Z,30.46
2022-08-17T10:55:21.419Z,30.07
2022-08-17T10:57:51.639Z,29.69
2022-08-17T11:01:04.606Z,30.07
2022-08-17T11:03:33.361Z,30.32
2022-08-17T11:06:12.762Z,30.64
2022-08-17T11:09:16.673Z,30.73
2022-08-17T11:12:17.414Z,30.89
2022-08-17T11:15:01.929Z,31.04
2022-08-17T11:17:54.656Z,30.86
2022-08-17T11:21:02.435Z,31.23
2022-08-17T11:23:54.236Z,31.47
2022-08-17T11:26:27.110Z,31.43
2022-08-17T11:29:02.283Z,31.52
2022-08-17T11:31:38.442Z,31.18
2022-08-17T11:34:15.926Z,31.12
2022-08-17T11:37:10.007Z,30.97
2022-08-17T11:40:05.968Z,30.91
2022-08-17T11:43:01.202Z,30.74
2022-08-17T11:45:51.421Z,29.94
2022-08-17T11:48:44.298Z,29.97
2022-08-17T11:51:41.435Z,30.40
2022-08-17T11:54:32.198Z,30.39
2022-08-17T11:57:21.580Z,30.12
2022-08-17T12:00:06.279Z,29.96
2022-08-17T12:02:47.823Z,29.52
2022-08-17T12:05:31.128Z,29.47
2022-08-17T12:08:08.634Z,29.79
2022-08-17T12:10:41.825Z,30.02
2022-08-17T12:13:15.465Z,30.08
2022-08-17T12:15:48.964Z,30.10
2022-08-17T12:18:22.988Z,30.08
2022-08-17T12:21:21.628Z,29.99
2022-08-17T12:23:57.698Z,29.82
2022-08-17T12:26:30.458Z,29.61
2022-08-17T12:29:02.341Z,29.56
2022-08-17T12:31:35.606Z,29.56
2022-08-17T12:34:06.201Z,28.72
2022-08-17T12:36:35.234Z,28.71
2022-08-17T12:39:13.736Z,28.48
2022-08-17T12:41:47.046Z,28.68
2022-08-17T12:44:18.316Z,29.13
2022-08-17T12:46:53.358Z,29.64
2022-08-17T12:49:27.617Z,29.81
2022-08-17T12:52:04.380Z,30.00
2022-08-17T12:54:42.577Z,30.19
2022-08-17T12:57:17.078Z,30.35
2022-08-17T12:59:48.848Z,30.57
2022-08-17T13:02:31.676Z,30.82
2022-08-17T13:05:02.806Z,30.88
2022-08-17T13:07:37.246Z,31.01
2022-08-17T13:10:06.338Z,31.08
2022-08-17T13:12:37.032Z,30.99
2022-08-17T13:15:05.974Z,30.87
2022-08-17T13:17:37.021Z,30.75
2022-08-17T13:20:16.374Z,30.53
2022-08-17T13:22:45.367Z,30.57
2022-08-17T13:25:18.199Z,30.50
2022-08-17T13:27:49.022Z,30.49
2022-08-17T13:30:27.368Z,30.63
2022-08-17T13:32:57.417Z,30.80
2022-08-17T13:35:39.737Z,30.50
2022-08-17T13:38:11.640Z,30.43
2022-08-17T13:40:43.690Z,30.46
2022-08-17T13:43:13.479Z,30.55
2022-08-17T13:45:51.167Z,30.45
2022-08-17T13:48:24.336Z,30.34
2022-08-17T13:51:21.673Z,30.35
2022-08-17T13:54:05.245Z,30.05
2022-08-17T13:56:48.223Z,30.03
2022-08-17T13:59:36.379Z,30.00
2022-08-17T14:02:18.673Z,30.01
2022-08-17T14:04:49.639Z,30.05
2022-08-17T14:07:30.367Z,30.02
2022-08-17T14:10:02.456Z,29.89
2022-08-17T14:12:34.375Z,30.07
2022-08-17T14:15:02.908Z,30.17
2022-08-17T14:17:36.375Z,30.17
2022-08-17T14:20:09.580Z,30.22
2022-08-17T14:22:41.788Z,30.01
2022-08-17T14:25:12.354Z,30.00
2022-08-17T14:27:41.887Z,29.92
2022-08-17T14:30:21.332Z,29.93
2022-08-17T14:32:51.876Z,30.07
2022-08-17T14:35:23.323Z,30.25
2022-08-17T14:37:53.698Z,30.17
2022-08-17T14:40:24.706Z,30.08
2022-08-17T14:42:55.305Z,29.70
2022-08-17T14:45:29.871Z,29.33
2022-08-17T14:48:04.251Z,29.26
2022-08-17T14:50:35.449Z,28.95
2022-08-17T14:53:07.118Z,28.87
2022-08-17T14:55:36.946Z,28.94
2022-08-17T14:58:05.175Z,28.81
2022-08-17T15:00:33.439Z,28.71
2022-08-17T15:03:02.719Z,28.86
2022-08-17T15:05:32.693Z,28.60
2022-08-17T15:08:02.236Z,28.52
2022-08-17T15:10:32.744Z,28.54
2022-08-17T15:13:01.370Z,28.50
2022-08-17T15:15:30.200Z,28.52
2022-08-17T15:17:58.860Z,28.27
2022-08-17T15:20:29.861Z,28.28
2022-08-17T15:22:59.411Z,28.20
2022-08-17T15:25:29.747Z,28.02
2022-08-17T15:27:59.846Z,28.07
2022-08-17T15:30:29.011Z,28.02
2022-08-17T15:32:58.791Z,28.20
2022-08-17T15:35:29.435Z,28.52
2022-08-17T15:38:08.357Z,28.80
2022-08-17T15:40:44.507Z,28.91
2022-08-17T15:43:16.964Z,29.07
2022-08-17T15:45:58.650Z,29.25
2022-08-17T15:48:41.335Z,29.40
2022-08-17T15:51:12.329Z,29.39
2022-08-17T15:53:41.717Z,29.30
2022-08-17T15:56:11.359Z,28.76
2022-08-17T15:58:42.317Z,28.46
2022-08-17T16:01:16.473Z,28.39
2022-08-17T16:04:04.113Z,28.50
2022-08-17T16:06:33.645Z,28.28
2022-08-17T16:09:01.964Z,28.39
2022-08-17T16:11:30.386Z,28.29
2022-08-17T16:14:00.985Z,28.20
2022-08-17T16:16:31.341Z,27.65
2022-08-17T16:18:59.643Z,27.77
2022-08-17T16:21:31.220Z,27.48
2022-08-17T16:24:12.867Z,27.37
2022-08-17T16:26:41.770Z,26.92
2022-08-17T16:29:11.687Z,26.93
2022-08-17T16:31:41.909Z,27.01
2022-08-17T16:34:17.899Z,26.90
2022-08-17T16:36:55.473Z,26.76
2022-08-17T16:39:26.110Z,26.63
2022-08-17T16:41:54.596Z,26.56
2022-08-17T16:44:24.193Z,26.70
2022-08-17T16:46:52.393Z,26.64
2022-08-17T16:49:27.577Z,26.53
2022-08-17T16:52:06.019Z,26.52
2022-08-17T16:54:35.505Z,26.34
2022-08-17T16:57:05.312Z,26.36
2022-08-17T16:59:40.749Z,26.32
2022-08-17T17:02:11.378Z,26.36
2022-08-17T17:04:47.544Z,26.26
2022-08-17T17:07:33.955Z,26.16
2022-08-17T17:10:06.611Z,26.15
2022-08-17T17:13:00.824Z,26.03
2022-08-17T17:15:32.006Z,25.91
2022-08-17T17:18:07.299Z,25.92
2022-08-17T17:20:45.878Z,25.87
2022-08-17T17:23:28.390Z,25.89
2022-08-17T17:26:06.425Z,25.90
2022-08-17T17:29:00.273Z,25.86
2022-08-17T17:31:38.408Z,25.69
2022-08-17T17:34:11.330Z,25.75
2022-08-17T17:36:45.898Z,25.70
2022-08-17T17:39:20.249Z,25.68
2022-08-17T17:41:54.715Z,25.74
2022-08-17T17:44:28.832Z,25.72
2022-08-17T17:47:00.346Z,25.76
2022-08-17T17:49:35.544Z,25.77
2022-08-17T17:52:14.226Z,25.61
2022-08-17T17:55:01.870Z,25.50
2022-08-17T17:57:42.029Z,25.51
2022-08-17T18:00:15.209Z,25.55
2022-08-17T18:02:58.346Z,25.53
2022-08-17T18:05:40.679Z,25.49
2022-08-17T18:08:19.920Z,25.40
2022-08-17T18:11:10.850Z,25.55
2022-08-17T18:13:54.549Z,25.42
2022-08-17T18:16:23.266Z,25.53
2022-08-17T18:18:53.830Z,25.47
2022-08-17T18:21:24.470Z,25.41
2022-08-17T18:23:56.213Z,25.35
2022-08-17T18:26:45.105Z,25.34
2022-08-17T18:29:43.921Z,25.16
2022-08-17T18:32:37.544Z,25.19
2022-08-17T18:35:28.365Z,25.13
2022-08-17T18:37:59.457Z,24.93
2022-08-17T18:40:38.323Z,24.89
2022-08-17T18:43:13.863Z,24.91
2022-08-17T18:45:47.477Z,24.88
2022-08-17T18:48:24.600Z,24.82
2022-08-17T18:50:57.549Z,24.77
2022-08-17T18:53:38.006Z,24.81
2022-08-17T18:56:27.550Z,24.85
2022-08-17T18:59:06.152Z,24.87
2022-08-17T19:02:09.976Z,24.94
2022-08-17T19:04:44.488Z,24.93
2022-08-17T19:07:27.615Z,24.95
2022-08-17T19:10:01.906Z,24.98
2022-08-17T19:12:45.043Z,25.02
2022-08-17T19:15:17.360Z,24.93
2022-08-17T19:17:49.347Z,24.92
2022-08-17T19:20:21.332Z,24.91
2022-08-17T19:23:03.190Z,24.86
2022-08-17T19:25:35.643Z,24.82
2022-08-17T19:28:15.376Z,24.93
2022-08-17T19:30:55.904Z,24.86
2022-08-17T19:33:24.415Z,24.81
2022-08-17T19:36:02.377Z,24.80
2022-08-17T19:38:54.207Z,24.76
2022-08-17T19:41:30.082Z,24.72
2022-08-17T19:44:27.117Z,24.64
2022-08-17T19:47:03.163Z,24.72
2022-08-17T19:49:49.331Z,24.72
2022-08-17T19:52:34.474Z,24.69
2022-08-17T19:55:10.699Z,24.55
2022-08-17T19:57:46.733Z,24.51
2022-08-17T20:00:17.368Z,24.47
2022-08-17T20:02:53.314Z,24.53
2022-08-17T20:05:25.207Z,24.48
2022-08-17T20:07:58.190Z,24.39
2022-08-17T20:10:39.846Z,24.44
2022-08-17T20:13:12.078Z,24.45
2022-08-17T20:15:43.359Z,24.35
2022-08-17T20:18:21.237Z,24.31
2022-08-17T20:20:57.818Z,24.35
2022-08-17T20:23:46.058Z,24.29
2022-08-17T20:26:22.878Z,24.25
2022-08-17T20:29:08.159Z,24.33
2022-08-17T20:31:49.639Z,24.30
2022-08-17T20:34:37.712Z,24.19
2022-08-17T20:37:09.357Z,24.15
2022-08-17T20:39:41.295Z,24.14
2022-08-17T20:42:30.324Z,24.07
2022-08-17T20:45:02.771Z,23.98
2022-08-17T20:47:34.210Z,23.95
2022-08-17T20:50:06.996Z,24.01
2022-08-17T20:52:52.102Z,24.08
2022-08-17T20:55:54.840Z,24.04
2022-08-17T20:58:47.423Z,24.12
2022-08-17T21:01:24.526Z,23.94
2022-08-17T21:03:54.278Z,23.79
2022-08-17T21:06:25.375Z,23.80
2022-08-17T21:09:00.723Z,23.69
2022-08-17T21:12:04.119Z,23.65
2022-08-17T21:14:42.233Z,23.72
2022-08-17T21:17:31.194Z,23.74
2022-08-17T21:20:11.390Z,23.70
2022-08-17T21:22:53.403Z,23.67
2022-08-17T21:25:35.684Z,23.52
2022-08-17T21:28:13.398Z,23.53
2022-08-17T21:30:51.756Z,23.41
2022-08-17T21:33:25.301Z,23.41
2022-08-17T21:35:58.672Z,23.40
2022-08-17T21:38:37.914Z,23.51
2022-08-17T21:41:06.480Z,23.45
2022-08-17T21:43:37.621Z,23.20
2022-08-17T21:46:12.096Z,23.07
2022-08-17T21:48:45.269Z,23.12
2022-08-17T21:51:20.770Z,23.27
2022-08-17T21:53:51.439Z,23.42
2022-08-17T21:56:25.887Z,23.47
2022-08-17T21:59:00.819Z,23.42
2022-08-17T22:01:34.431Z,23.33
2022-08-17T22:04:05.666Z,23.36
2022-08-17T22:06:39.844Z,23.30
2022-08-17T22:09:15.703Z,23.20
2022-08-17T22:11:52.824Z,23.17
2022-08-17T22:14:22.704Z,23.22
2022-08-17T22:17:07.662Z,23.34
2022-08-17T22:19:37.121Z,23.37
2022-08-17T22:22:07.472Z,23.32
2022-08-17T22:24:36.919Z,23.13
2022-08-17T22:27:10.289Z,23.04
2022-08-17T22:29:57.783Z,23.04
2022-08-17T22:32:40.939Z,23.04
2022-08-17T22:35:45.753Z,23.08
2022-08-17T22:38:29.245Z,23.11
2022-08-17T22:41:13.904Z,23.17
2022-08-17T22:43:43.810Z,23.23
2022-08-17T22:46:15.028Z,23.22
2022-08-17T22:48:52.078Z,23.14
2022-08-17T22:51:23.516Z,23.06
2022-08-17T22:54:13.081Z,22.91
2022-08-17T22:57:07.333Z,22.89
2022-08-17T22:59:45.053Z,22.78
2022-08-17T23:02:20.649Z,22.75
2022-08-17T23:04:53.234Z,22.76
2022-08-17T23:07:24.102Z,22.97
2022-08-17T23:09:54.019Z,23.16
2022-08-17T23:12:27.259Z,23.28
2022-08-17T23:15:01.697Z,23.17
2022-08-17T23:17:36.890Z,23.23
2022-08-17T23:20:12.230Z,23.27
2022-08-17T23:22:51.265Z,23.33
2022-08-17T23:25:27.214Z,23.41
2022-08-17T23:27:55.668Z,23.44
2022-08-17T23:30:25.513Z,23.48
2022-08-17T23:32:54.479Z,23.45
2022-08-17T23:35:40.065Z,23.43
2022-08-17T23:38:10.114Z,23.31
2022-08-17T23:40:39.327Z,23.02
2022-08-17T23:43:23.521Z,23.04
2022-08-17T23:45:53.453Z,22.96
2022-08-17T23:48:36.110Z,22.90
2022-08-17T23:51:12.555Z,22.96
2022-08-17T23:53:46.560Z,22.96
2022-08-17T23:56:15.521Z,23.00
2022-08-17T23:58:44.999Z,22.91
